Time;durP1;ratioP1;P1;durP2;ratioP2;P2;SDS_P1;SDS_P2;PMS_P1;PMS_P2;Temp;Humidity;BMP_temperature;BMP_pressure;BME280_temperature;BME280_humidity;BME280_pressure;Samples;Min_cycle;Max_cycle;Signal;HPM_P1;HPM_P2
2021/01/02 00:02:19;;;;;;;35.53;17.85;;;;;;;1.23;100.00;97268.50;5018519;28;20060;-80
2021/01/02 00:04:51;;;;;;;30.88;15.70;;;;;;;1.32;100.00;97274.09;5037407;28;20104;-79
2021/01/02 00:07:36;;;;;;;33.15;16.52;;;;;;;1.33;100.00;97272.25;5037077;28;20084;-78
2021/01/02 00:10:04;;;;;;;35.85;17.30;;;;;;;1.37;100.00;97284.00;5037692;28;20057;-79
2021/01/02 00:12:52;;;;;;;31.17;16.08;;;;;;;1.35;100.00;97278.91;5037861;28;20076;-79
2021/01/02 00:15:30;;;;;;;35.15;17.52;;;;;;;1.42;100.00;97273.34;5023552;28;20056;-78
2021/01/02 00:17:59;;;;;;;34.13;16.65;;;;;;;1.51;100.00;97280.53;5055645;28;20033;-79
2021/01/02 00:20:41;;;;;;;32.60;16.65;;;;;;;1.59;100.00;97284.56;5047281;28;20145;-78
2021/01/02 00:23:41;;;;;;;33.22;16.73;;;;;;;1.60;100.00;97272.81;5019664;28;20074;-78
2021/01/02 00:26:42;;;;;;;32.65;15.85;;;;;;;1.52;100.00;97278.69;5041960;28;20560;-78
2021/01/02 00:29:23;;;;;;;35.45;17.80;;;;;;;1.59;100.00;97265.88;5035345;28;20045;-78
2021/01/02 00:32:02;;;;;;;41.47;19.00;;;;;;;1.65;100.00;97281.59;5034543;28;20136;-79
2021/01/02 00:34:44;;;;;;;36.67;18.25;;;;;;;1.74;100.00;97281.88;5032251;28;20064;-78
2021/01/02 00:37:22;;;;;;;38.35;18.75;;;;;;;1.74;100.00;97293.38;4999478;28;20064;-78
2021/01/02 00:40:10;;;;;;;42.17;19.33;;;;;;;1.71;100.00;97285.06;5017485;28;20390;-79
2021/01/02 00:42:43;;;;;;;39.08;19.10;;;;;;;1.75;100.00;97294.16;5015758;28;20045;-79
2021/01/02 00:45:15;;;;;;;37.70;18.95;;;;;;;1.81;100.00;97296.56;5017353;28;20100;-79
2021/01/02 00:47:43;;;;;;;34.72;18.33;;;;;;;1.87;100.00;97300.03;4990768;28;20071;-79
2021/01/02 00:50:12;;;;;;;41.60;18.92;;;;;;;1.80;100.00;97291.50;5034082;28;20049;-80
2021/01/02 00:52:50;;;;;;;38.72;17.83;;;;;;;1.78;100.00;97282.97;5044999;28;20101;-80
2021/01/02 00:55:51;;;;;;;41.92;19.55;;;;;;;1.83;100.00;97296.31;5025380;28;20141;-80
2021/01/02 00:58:20;;;;;;;35.78;18.45;;;;;;;1.71;100.00;97293.88;5000318;28;20061;-79
2021/01/02 01:00:58;;;;;;;35.97;18.25;;;;;;;1.82;100.00;97305.38;5058080;28;20046;-79
2021/01/02 01:04:04;;;;;;;37.55;19.02;;;;;;;1.91;100.00;97300.31;5045291;28;20540;-77
2021/01/02 01:06:38;;;;;;;39.80;18.63;;;;;;;1.87;100.00;97306.19;5040838;28;20041;-79
2021/01/02 01:09:06;;;;;;;34.45;17.45;;;;;;;1.95;100.00;97307.50;5023965;28;20099;-80
2021/01/02 01:11:37;;;;;;;36.20;17.33;;;;;;;1.93;100.00;97296.31;5002041;28;20128;-79
2021/01/02 01:14:04;;;;;;;36.00;17.70;;;;;;;1.77;100.00;97300.03;5000099;28;20060;-79
2021/01/02 01:16:44;;;;;;;34.92;17.15;;;;;;;1.76;100.00;97303.75;5000210;28;20068;-79
2021/01/02 01:22:51;;;;;;;39.45;17.73;;;;;;;1.48;100.00;97280.25;5035092;28;20569;-82
2021/01/02 01:26:39;;;;;;;34.83;17.10;;;;;;;1.69;100.00;97322.72;4964259;28;20054;-80
2021/01/02 01:29:58;;;;;;;37.00;17.90;;;;;;;1.57;100.00;97319.50;4945303;29;20055;-80
2021/01/02 01:33:21;;;;;;;34.15;17.05;;;;;;;1.33;100.00;97283.72;4936460;29;20334;-80
2021/01/02 01:37:09;;;;;;;34.53;17.38;;;;;;;1.30;100.00;97300.25;4935001;29;20119;-80
2021/01/02 01:40:28;;;;;;;34.80;16.70;;;;;;;1.33;100.00;97301.56;4944144;29;20051;-82
2021/01/02 01:43:52;;;;;;;40.42;17.75;;;;;;;1.31;100.00;97322.38;4995165;28;20053;-81
2021/01/02 01:47:56;;;;;;;37.00;17.20;;;;;;;1.21;100.00;97329.28;5002725;28;20054;-80
2021/01/02 01:55:14;;;;;;;33.85;16.45;;;;;;;0.98;100.00;97324.41;4979435;28;20514;-80
2021/01/02 01:58:54;;;;;;;32.47;16.65;;;;;;;0.66;100.00;97314.94;4970108;28;20043;-80
2021/01/02 02:01:40;;;;;;;33.00;16.30;;;;;;;0.62;100.00;97327.97;4971403;28;20442;-79
2021/01/02 02:05:40;;;;;;;34.53;15.90;;;;;;;0.37;100.00;97325.16;4935626;28;20047;-80
2021/01/02 02:08:59;;;;;;;35.05;16.23;;;;;;;0.19;100.00;97318.41;4984284;28;20452;-79
2021/01/02 02:12:52;;;;;;;38.90;17.45;;;;;;;0.19;100.00;97344.22;5013556;28;20048;-81
2021/01/02 02:15:34;;;;;;;37.63;17.35;;;;;;;0.14;100.00;97344.19;4919884;29;20044;-79
2021/01/02 02:19:03;;;;;;;36.65;17.45;;;;;;;-0.02;100.00;97328.09;4927651;28;20068;-80
2021/01/02 02:22:28;;;;;;;38.10;17.65;;;;;;;-0.19;100.00;97310.69;5014488;28;20037;-79
2021/01/02 02:25:38;;;;;;;34.05;16.60;;;;;;;-0.19;100.00;97327.44;5009952;28;20527;-79
2021/01/02 02:28:49;;;;;;;38.33;17.73;;;;;;;-0.37;100.00;97314.53;5014262;28;20129;-79
2021/01/02 02:31:30;;;;;;;36.70;16.70;;;;;;;-0.43;100.00;97328.81;5013456;28;20045;-79
2021/01/02 02:37:34;;;;;;;46.83;20.05;;;;;;;-0.58;100.00;97338.50;5019357;28;20462;-79
2021/01/02 02:40:35;;;;;;;42.72;19.67;;;;;;;-0.81;100.00;97321.00;5024226;28;20539;-79
2021/01/02 02:43:21;;;;;;;45.40;19.55;;;;;;;-0.74;100.00;97348.19;5006538;28;20050;-78
2021/01/02 02:46:30;;;;;;;;;;;;;;;;;;;;;
2021/01/02 02:56:17;;;;;;;41.40;18.08;;;;;;;-0.93;100.00;97301.75;4986733;28;20045;-78
2021/01/02 02:59:35;;;;;;;42.85;17.88;;;;;;;-0.84;100.00;97319.66;4980951;28;20081;-78
2021/01/02 03:03:18;;;;;;;42.20;18.63;;;;;;;-0.76;100.00;97332.50;5008454;28;20052;-78
2021/01/02 03:06:51;;;;;;;46.30;19.38;;;;;;;-0.88;100.00;97313.22;4976698;28;20054;-78
2021/01/02 03:13:18;;;;;;;43.40;19.60;;;;;;;-0.76;100.00;97318.41;4981822;28;20132;-78
2021/01/02 03:16:48;;;;;;;43.67;19.33;;;;;;;-0.67;100.00;97336.28;4998942;28;20042;-79
2021/01/02 03:19:34;;;;;;;49.03;20.48;;;;;;;-0.72;100.00;97327.47;5008119;28;20050;-78
2021/01/02 03:25:58;;;;;;;;;;;;;;;;;;;;;
2021/01/02 03:28:56;;;;;;;43.97;19.00;;;;;;;-0.74;100.00;97338.34;4976761;28;20050;-78
2021/01/02 03:32:31;;;;;;;40.72;18.42;;;;;;;-0.70;100.00;97347.41;4990642;28;20051;-78
2021/01/02 03:35:37;;;;;;;;;;;;;;;;;;;;;
2021/01/02 03:38:22;;;;;;;41.90;17.75;;;;;;;-0.86;100.00;97315.63;5012267;28;20133;-78
2021/01/02 03:41:37;;;;;;;34.13;16.42;;;;;;;-0.89;100.00;97324.91;5007590;28;20069;-78
2021/01/02 03:44:49;;;;;;;40.25;17.77;;;;;;;-0.87;100.00;97353.88;5010755;28;20056;-79
2021/01/02 03:51:44;;;;;;;43.40;18.38;;;;;;;-1.08;100.00;97326.28;4995402;28;20536;-78
2021/01/02 03:55:10;;;;;;;52.58;19.38;;;;;;;-0.94;100.00;97363.91;5003354;28;20507;-78
2021/01/02 03:57:52;;;;;;;48.95;19.52;;;;;;;-1.27;100.00;97325.00;5010690;28;20065;-78
2021/01/02 04:01:16;;;;;;;46.03;19.13;;;;;;;-1.38;100.00;97320.59;4992492;28;20492;-78
2021/01/02 04:04:33;;;;;;;45.08;18.30;;;;;;;-1.33;100.00;97332.09;5013135;28;20050;-78
2021/01/02 04:07:44;;;;;;;46.05;19.48;;;;;;;-1.44;100.00;97306.47;4950630;29;20051;-78
2021/01/02 04:11:04;;;;;;;47.50;19.98;;;;;;;-1.36;100.00;97327.28;4923057;29;20061;-78
2021/01/02 04:14:55;;;;;;;43.97;18.98;;;;;;;-1.14;100.00;97361.00;4935463;29;20055;-79
2021/01/02 04:18:43;;;;;;;47.75;20.00;;;;;;;-1.28;100.00;97312.78;4901536;29;20619;-80
2021/01/02 04:25:28;;;;;;;45.22;18.30;;;;;;;-1.07;100.00;97346.50;4939593;28;20058;-79
2021/01/02 04:28:24;;;;;;;45.90;19.70;;;;;;;-1.03;100.00;97363.53;4951367;28;20061;-79
2021/01/02 04:35:48;;;;;;;;;;;;;;;;;;;;;
2021/01/02 04:39:00;;;;;;;43.00;18.35;;;;;;;-1.10;100.00;97346.16;4983021;28;20089;-79
2021/01/02 04:42:04;;;;;;;41.03;18.48;;;;;;;-0.96;100.00;97344.75;5006352;28;20058;-79
2021/01/02 04:45:19;;;;;;;39.38;17.83;;;;;;;-0.90;100.00;97341.09;5008009;28;20076;-79
2021/01/02 04:48:40;;;;;;;38.53;17.25;;;;;;;-0.84;100.00;97348.06;5004579;28;20107;-79
2021/01/02 04:51:29;;;;;;;37.75;17.35;;;;;;;-0.93;100.00;97331.75;5008755;28;20042;-79
2021/01/02 04:54:38;;;;;;;;;;;;;;;;;;;;;
2021/01/02 04:57:50;;;;;;;77.03;28.75;;;;;;;-0.78;100.00;97339.13;5009960;28;20053;-79
2021/01/02 05:01:07;;;;;;;;;;;;;;;;;;;;;
2021/01/02 05:06:53;;;;;;;48.35;20.35;;;;;;;-0.93;100.00;97328.31;5015625;28;20060;-79
2021/01/02 05:09:33;;;;;;;51.85;21.65;;;;;;;-0.84;100.00;97342.75;4999438;28;20044;-79
2021/01/02 05:16:24;;;;;;;68.75;26.02;;;;;;;-0.81;100.00;97347.56;5001911;28;20053;-79
2021/01/02 05:23:09;;;;;;;46.03;20.05;;;;;;;-0.54;100.00;97377.63;5000576;28;20049;-81
2021/01/02 05:29:11;;;;;;;203.65;75.93;;;;;;;-0.60;100.00;97356.56;4974908;28;20498;-77
2021/01/02 05:32:26;;;;;;;142.52;53.20;;;;;;;-0.37;100.00;97375.69;4979579;28;20054;-78
2021/01/02 05:35:45;;;;;;;91.60;35.03;;;;;;;-0.35;100.00;97370.91;4989899;28;20070;-79
2021/01/02 05:38:41;;;;;;;67.22;29.77;;;;;;;-0.52;100.00;97345.50;5012989;28;20054;-79
2021/01/02 05:42:03;;;;;;;73.68;30.05;;;;;;;-0.23;100.00;97392.00;5007624;28;20073;-78
2021/01/02 05:52:57;;;;;;;36.13;17.17;;;;;;;-0.26;100.00;97377.38;4918224;29;20075;-79
2021/01/02 05:56:22;;;;;;;;;;;;;;;;;;;;;
2021/01/02 06:03:41;;;;;;;46.55;19.95;;;;;;;-0.18;100.00;97384.13;4974533;28;20046;-79
2021/01/02 06:07:23;;;;;;;52.28;21.88;;;;;;;-0.11;100.00;97387.34;5010628;28;20050;-80
2021/01/02 06:14:55;;;;;;;50.08;21.60;;;;;;;-0.09;100.00;97401.19;4950830;28;20805;-79
2021/01/02 06:19:08;;;;;;;49.03;20.73;;;;;;;-0.20;100.00;97388.84;4925317;29;20050;-79
2021/01/02 06:34:36;;;;;;;;;;;;;;;;;;;;;
2021/01/02 06:42:55;;;;;;;46.38;21.23;;;;;;;-0.29;100.00;97415.13;4914942;29;20068;-79
2021/01/02 06:51:03;;;;;;;;;;;;;;;;;;;;;
2021/01/02 06:54:56;;;;;;;43.13;20.08;;;;;;;-0.30;100.00;97396.75;4870088;29;20064;-81
2021/01/02 06:58:44;;;;;;;34.53;16.23;;;;;;;-0.26;100.00;97424.47;4790812;29;20203;-80
2021/01/02 07:06:26;;;;;;;36.30;17.08;;;;;;;-0.22;100.00;97430.88;4784255;29;20122;-81
2021/01/02 07:10:03;;;;;;;;;;;;;;;;;;;;;
2021/01/02 07:13:31;;;;;;;35.13;15.60;;;;;;;-0.22;100.00;97418.38;4802687;29;20154;-79
2021/01/02 07:17:47;;;;;;;32.22;15.00;;;;;;;-0.09;100.00;97417.97;4766271;30;20048;-77
2021/01/02 07:24:23;;;;;;;40.53;16.73;;;;;;;-0.18;100.00;97432.75;5005208;28;20058;-77
2021/01/02 07:26:59;;;;;;;35.83;17.00;;;;;;;-0.19;100.00;97412.56;4986440;28;20054;-78
2021/01/02 07:29:27;;;;;;;33.58;16.20;;;;;;;-0.06;100.00;97438.75;4985556;28;20050;-78
2021/01/02 07:32:03;;;;;;;32.70;15.70;;;;;;;0.00;100.00;97442.28;5005322;28;20340;-78
2021/01/02 07:34:29;;;;;;;31.00;15.48;;;;;;;0.05;100.00;97437.00;5005813;28;20042;-78
2021/01/02 07:36:56;;;;;;;31.88;14.48;;;;;;;0.08;100.00;97417.06;4990455;28;20058;-80
2021/01/02 07:39:22;;;;;;;30.52;14.48;;;;;;;0.21;100.00;97432.59;5009592;28;20073;-78
2021/01/02 07:41:54;;;;;;;32.50;15.00;;;;;;;0.20;100.00;97438.97;4976610;28;20417;-78
2021/01/02 07:44:21;;;;;;;32.85;15.23;;;;;;;-0.02;100.00;97439.84;4999037;28;20049;-78
2021/01/02 07:46:47;;;;;;;32.28;14.32;;;;;;;0.10;100.00;97436.22;4972503;28;20042;-78
2021/01/02 07:49:17;;;;;;;32.17;14.93;;;;;;;0.19;100.00;97440.03;4985124;28;20059;-78
2021/01/02 07:51:47;;;;;;;32.13;13.98;;;;;;;0.21;100.00;97444.03;4991452;28;20091;-77
2021/01/02 07:54:30;;;;;;;27.58;13.18;;;;;;;0.17;100.00;97448.28;4975252;28;20050;-77
2021/01/02 07:56:59;;;;;;;29.90;14.63;;;;;;;0.24;100.00;97448.84;4990916;28;20494;-77
2021/01/02 07:59:41;;;;;;;25.42;12.93;;;;;;;0.30;100.00;97455.84;4995570;28;20050;-80
2021/01/02 08:02:25;;;;;;;32.17;13.55;;;;;;;0.39;100.00;97450.84;4977358;28;20505;-79
2021/01/02 08:04:53;;;;;;;28.10;14.25;;;;;;;0.45;100.00;97458.63;4995252;28;20058;-78
2021/01/02 08:07:21;;;;;;;28.00;12.73;;;;;;;0.48;100.00;97450.13;4996266;28;20128;-78
2021/01/02 08:09:49;;;;;;;23.30;11.35;;;;;;;0.57;100.00;97467.22;4980652;28;20050;-78
2021/01/02 08:12:17;;;;;;;22.73;11.90;;;;;;;0.54;100.00;97467.72;4994105;28;20077;-78
2021/01/02 08:14:49;;;;;;;22.67;11.18;;;;;;;0.56;100.00;97470.16;5003781;28;20046;-79
2021/01/02 08:17:17;;;;;;;27.02;10.90;;;;;;;0.69;100.00;97463.59;5009434;28;20046;-80
2021/01/02 08:19:48;;;;;;;27.42;11.45;;;;;;;0.82;100.00;97471.16;5008204;28;20108;-78
2021/01/02 08:22:27;;;;;;;24.70;11.43;;;;;;;0.89;100.00;97469.06;5004288;28;20042;-79
2021/01/02 08:25:05;;;;;;;25.52;10.60;;;;;;;0.86;100.00;97469.56;5005693;28;20050;-78
2021/01/02 08:27:34;;;;;;;26.15;11.63;;;;;;;0.78;100.00;97465.50;4993750;28;20053;-80
2021/01/02 08:30:04;;;;;;;26.13;11.70;;;;;;;0.69;100.00;97475.06;5020814;28;20063;-78
2021/01/02 08:32:34;;;;;;;25.08;10.55;;;;;;;0.76;100.00;97486.28;5021473;28;20054;-78
2021/01/02 08:35:02;;;;;;;22.85;10.65;;;;;;;0.89;100.00;97477.84;5007982;28;20057;-79
2021/01/02 08:37:28;;;;;;;26.27;10.95;;;;;;;1.08;100.00;97479.06;5000176;28;20050;-79
2021/01/02 08:40:07;;;;;;;21.63;11.32;;;;;;;1.22;100.00;97482.84;4981884;28;20038;-79
2021/01/02 08:42:38;;;;;;;25.45;11.82;;;;;;;1.25;100.00;97458.34;4991312;28;20037;-78
2021/01/02 08:45:06;;;;;;;24.65;12.13;;;;;;;1.33;100.00;97469.56;5002498;28;20378;-78
2021/01/02 08:47:35;;;;;;;26.20;11.75;;;;;;;1.39;100.00;97457.88;5006938;28;20105;-79
2021/01/02 08:50:12;;;;;;;25.35;11.60;;;;;;;1.44;100.00;97468.56;4991952;28;20054;-78
2021/01/02 08:52:39;;;;;;;27.98;11.82;;;;;;;1.55;100.00;97456.88;4990989;28;20050;-78
2021/01/02 08:55:15;;;;;;;28.48;12.70;;;;;;;1.38;100.00;97466.91;4992362;28;20402;-78
2021/01/02 08:57:48;;;;;;;28.85;12.95;;;;;;;1.41;100.00;97455.72;4987517;28;20046;-77
2021/01/02 09:00:16;;;;;;;27.92;13.13;;;;;;;1.27;100.00;97464.19;4998048;28;20042;-77
2021/01/02 09:03:03;;;;;;;25.25;13.07;;;;;;;1.25;100.00;97462.84;4997091;28;20121;-75
2021/01/02 09:05:38;;;;;;;29.90;13.50;;;;;;;1.47;100.00;97462.69;4999811;28;20057;-77
2021/01/02 09:08:18;;;;;;;39.03;17.77;;;;;;;1.75;100.00;97468.41;5005891;28;20275;-79
2021/01/02 09:10:46;;;;;;;32.90;16.05;;;;;;;1.84;100.00;97463.34;4997714;28;20046;-78
2021/01/02 09:13:19;;;;;;;26.48;14.27;;;;;;;1.77;100.00;97476.13;4986875;28;20506;-79
2021/01/02 09:15:58;;;;;;;36.03;13.77;;;;;;;1.87;100.00;97484.97;4986088;28;20130;-79
2021/01/02 09:18:28;;;;;;;27.17;13.05;;;;;;;2.01;100.00;97487.16;4988794;28;20148;-80
2021/01/02 09:21:10;;;;;;;28.10;12.48;;;;;;;2.08;100.00;97479.69;5004980;28;20045;-79
2021/01/02 09:23:54;;;;;;;28.17;13.30;;;;;;;2.26;100.00;97476.50;5002648;28;20574;-80
2021/01/02 09:26:21;;;;;;;26.08;13.07;;;;;;;2.20;100.00;97477.56;5001401;28;20418;-78
2021/01/02 09:28:48;;;;;;;25.05;12.63;;;;;;;2.06;100.00;97481.81;4982413;28;20513;-77
2021/01/02 09:31:15;;;;;;;28.48;13.68;;;;;;;1.85;100.00;97479.13;5001985;28;20054;-78
2021/01/02 09:33:41;;;;;;;26.30;13.43;;;;;;;1.96;100.00;97479.13;4983349;28;20406;-77
2021/01/02 09:36:07;;;;;;;28.58;14.65;;;;;;;2.26;100.00;97479.19;5001175;28;20422;-79
2021/01/02 09:38:34;;;;;;;33.70;14.73;;;;;;;2.36;100.00;97485.34;4986904;28;20046;-79
2021/01/02 09:41:01;;;;;;;27.55;13.88;;;;;;;2.29;100.00;97482.13;4999353;28;20553;-77
2021/01/02 09:43:28;;;;;;;30.80;14.40;;;;;;;2.42;100.00;97481.63;4999902;28;20053;-77
2021/01/02 09:45:55;;;;;;;30.50;14.00;;;;;;;2.36;100.00;97487.19;4981500;28;20033;-78
2021/01/02 09:48:22;;;;;;;26.38;13.55;;;;;;;2.48;100.00;97482.41;4963263;28;20126;-79
2021/01/02 09:50:50;;;;;;;26.52;13.93;;;;;;;2.12;100.00;97486.09;4987742;28;20490;-78
2021/01/02 09:53:17;;;;;;;27.92;13.68;;;;;;;2.26;100.00;97488.00;4986869;28;20046;-78
2021/01/02 09:55:44;;;;;;;28.33;13.45;;;;;;;2.49;100.00;97479.47;5002219;28;20046;-79
2021/01/02 09:58:12;;;;;;;25.85;13.35;;;;;;;2.53;100.00;97489.63;5000491;28;20558;-78
2021/01/02 10:00:38;;;;;;;25.88;13.02;;;;;;;2.59;100.00;97483.19;4997723;28;20056;-78
2021/01/02 10:03:09;;;;;;;26.63;13.63;;;;;;;2.74;100.00;97493.88;4996000;28;20049;-78
2021/01/02 10:05:42;;;;;;;30.45;14.77;;;;;;;2.74;100.00;97497.38;4993095;28;20070;-78
2021/01/02 10:08:09;;;;;;;24.63;13.10;;;;;;;2.78;100.00;97490.44;4991699;28;20073;-77
2021/01/02 10:10:35;;;;;;;27.58;14.18;;;;;;;3.01;100.00;97489.06;4961219;28;20060;-78
2021/01/02 10:13:02;;;;;;;31.50;13.05;;;;;;;3.17;100.00;97482.63;4994252;28;20051;-78
2021/01/02 10:15:29;;;;;;;44.92;16.40;;;;;;;3.20;100.00;97474.03;4997235;28;20046;-79
2021/01/02 10:17:56;;;;;;;68.65;21.45;;;;;;;3.39;100.00;97471.59;4980911;28;20055;-77
2021/01/02 10:20:23;;;;;;;39.50;15.82;;;;;;;3.40;100.00;97468.66;4983507;28;20054;-78
2021/01/02 10:22:49;;;;;;;29.83;14.88;;;;;;;3.51;100.00;97456.81;5015871;28;20104;-79
2021/01/02 10:25:15;;;;;;;31.00;14.82;;;;;;;3.68;100.00;97456.50;5009011;28;20042;-78
2021/01/02 10:27:42;;;;;;;31.27;15.00;;;;;;;3.83;100.00;97448.38;4978250;28;20057;-78
2021/01/02 10:30:10;;;;;;;23.83;12.75;;;;;;;3.99;100.00;97452.59;4961258;28;20046;-78
2021/01/02 10:32:38;;;;;;;27.60;12.80;;;;;;;3.97;100.00;97448.59;5001900;28;20069;-76
2021/01/02 10:35:07;;;;;;;49.90;19.50;;;;;;;3.87;100.00;97445.97;4998110;28;20080;-76
2021/01/02 10:37:34;;;;;;;44.95;18.55;;;;;;;3.91;100.00;97445.13;5001288;28;20703;-77
2021/01/02 10:40:02;;;;;;;22.63;11.73;;;;;;;4.18;100.00;97444.69;4997989;28;20058;-79
2021/01/02 10:42:31;;;;;;;31.85;14.32;;;;;;;4.28;100.00;97440.03;4974610;28;20042;-77
2021/01/02 10:45:00;;;;;;;28.85;13.40;;;;;;;4.23;100.00;97442.00;4966745;28;20436;-77
2021/01/02 10:47:29;;;;;;;23.55;11.48;;;;;;;4.34;100.00;97440.81;4977162;28;20408;-77
2021/01/02 10:49:57;;;;;;;26.95;12.73;;;;;;;4.34;100.00;97438.94;4978615;28;20050;-79
2021/01/02 10:52:26;;;;;;;18.02;9.35;;;;;;;4.30;100.00;97437.91;4995301;28;20046;-80
2021/01/02 10:54:53;;;;;;;17.13;9.63;;;;;;;4.11;100.00;97425.44;4965408;28;20480;-79
2021/01/02 10:57:24;;;;;;;15.25;8.38;;;;;;;4.10;100.00;97435.38;4992442;28;20137;-78
2021/01/02 10:59:54;;;;;;;15.70;7.60;;;;;;;4.13;100.00;97440.16;4977047;28;20120;-78
2021/01/02 11:02:24;;;;;;;14.57;7.78;;;;;;;3.33;100.00;97432.56;4969550;28;20054;-77
2021/01/02 11:04:51;;;;;;;12.70;6.88;;;;;;;3.33;100.00;97432.56;5003780;28;20073;-78
2021/01/02 11:07:29;;;;;;;14.98;8.32;;;;;;;3.77;100.00;97439.56;4987307;28;20054;-78
2021/01/02 11:09:56;;;;;;;16.65;9.13;;;;;;;3.84;100.00;97431.25;4977117;28;20462;-79
2021/01/02 11:12:23;;;;;;;13.32;7.32;;;;;;;3.94;100.00;97433.88;4960806;28;20042;-79
2021/01/02 11:14:52;;;;;;;11.43;6.35;;;;;;;3.85;100.00;97434.72;4976525;28;20058;-79
2021/01/02 11:17:19;;;;;;;11.40;6.07;;;;;;;3.79;100.00;97431.28;4981283;28;20164;-79
2021/01/02 11:19:46;;;;;;;10.52;5.35;;;;;;;3.92;100.00;97419.97;4990716;28;20581;-79
2021/01/02 11:22:13;;;;;;;10.30;5.25;;;;;;;3.88;100.00;97412.75;4993791;28;20054;-79
2021/01/02 11:24:42;;;;;;;11.10;4.43;;;;;;;4.00;100.00;97426.59;4993220;28;20381;-79
2021/01/02 11:27:09;;;;;;;9.35;4.57;;;;;;;3.92;100.00;97419.16;4982257;28;20402;-79
2021/01/02 11:29:35;;;;;;;10.13;4.97;;;;;;;3.85;100.00;97413.28;4977297;28;20054;-78
2021/01/02 11:32:04;;;;;;;9.75;4.65;;;;;;;3.83;100.00;97416.25;4989322;28;20051;-79
2021/01/02 11:34:31;;;;;;;9.75;4.78;;;;;;;4.17;100.00;97405.59;4974362;28;20050;-78
2021/01/02 11:37:00;;;;;;;9.43;3.47;;;;;;;4.21;100.00;97409.28;4985212;28;20042;-80
2021/01/02 11:39:27;;;;;;;8.55;4.63;;;;;;;4.26;100.00;97409.25;4973804;28;20054;-79
2021/01/02 11:41:53;;;;;;;9.13;4.07;;;;;;;4.25;100.00;97411.16;4976601;28;20050;-78
2021/01/02 11:44:23;;;;;;;8.30;4.47;;;;;;;4.21;100.00;97404.75;4993578;28;20047;-78
2021/01/02 11:46:51;;;;;;;8.68;4.55;;;;;;;4.35;100.00;97404.91;4995166;28;20046;-78
2021/01/02 11:49:21;;;;;;;8.38;4.72;;;;;;;4.13;100.00;97412.59;4977371;28;20349;-77
2021/01/02 11:51:52;;;;;;;10.77;4.75;;;;;;;3.93;100.00;97410.03;4996601;28;20262;-77
2021/01/02 11:54:26;;;;;;;9.35;4.60;;;;;;;3.39;100.00;97396.66;4993111;28;20441;-77
2021/01/02 11:56:53;;;;;;;9.13;4.60;;;;;;;3.51;100.00;97410.56;4988765;28;20038;-77
2021/01/02 11:59:20;;;;;;;11.43;5.18;;;;;;;3.32;100.00;97393.50;4976826;28;20098;-76
2021/01/02 12:02:00;;;;;;;11.52;5.05;;;;;;;3.02;100.00;97413.91;4994897;28;20117;-78
2021/01/02 12:04:28;;;;;;;9.02;4.82;;;;;;;3.23;100.00;97405.84;4989775;28;20144;-77
2021/01/02 12:06:55;;;;;;;10.73;5.32;;;;;;;3.40;100.00;97406.31;4975187;28;20038;-77
2021/01/02 12:09:24;;;;;;;7.82;4.60;;;;;;;3.37;100.00;97396.97;4992689;28;20053;-77
2021/01/02 12:11:51;;;;;;;9.85;4.82;;;;;;;3.26;100.00;97407.97;4994745;28;20141;-78
2021/01/02 12:14:23;;;;;;;9.43;5.10;;;;;;;3.40;100.00;97419.69;4993748;28;20050;-77
2021/01/02 12:16:51;;;;;;;9.30;4.55;;;;;;;3.39;100.00;97410.84;4984917;28;20066;-77
2021/01/02 12:19:24;;;;;;;8.82;4.53;;;;;;;3.44;100.00;97413.50;4994092;28;20053;-76
2021/01/02 12:21:57;;;;;;;8.18;4.22;;;;;;;3.46;100.00;97406.00;4994634;28;20050;-79
2021/01/02 12:24:25;;;;;;;8.70;4.13;;;;;;;3.45;100.00;97406.28;4995262;28;20050;-78
2021/01/02 12:26:54;;;;;;;10.05;4.40;;;;;;;3.46;100.00;97402.53;4993082;28;20058;-78
2021/01/02 12:29:23;;;;;;;7.50;4.55;;;;;;;3.65;100.00;97396.28;4980402;28;20042;-77
2021/01/02 12:31:52;;;;;;;10.07;5.32;;;;;;;3.76;100.00;97400.50;4986948;28;20061;-77
2021/01/02 12:34:24;;;;;;;11.25;5.63;;;;;;;3.81;100.00;97401.53;5013963;28;20038;-79
2021/01/02 12:36:53;;;;;;;10.52;5.53;;;;;;;3.78;100.00;97397.53;5017269;28;20045;-78
2021/01/02 12:39:24;;;;;;;11.32;5.50;;;;;;;3.85;100.00;97402.56;4987979;28;20088;-78
2021/01/02 12:41:51;;;;;;;12.70;5.68;;;;;;;3.68;100.00;97394.94;5004210;28;20042;-76
2021/01/02 12:44:22;;;;;;;13.18;6.57;;;;;;;3.77;100.00;97406.63;4993723;28;20129;-76
2021/01/02 12:46:55;;;;;;;9.40;5.30;;;;;;;3.85;100.00;97395.34;5002252;28;20031;-77
2021/01/02 12:49:24;;;;;;;10.00;5.55;;;;;;;3.99;100.00;97391.00;4994059;28;20065;-76
2021/01/02 12:51:59;;;;;;;7.88;4.28;;;;;;;3.90;100.00;97400.66;4993374;28;20404;-77
2021/01/02 12:54:26;;;;;;;7.88;4.30;;;;;;;3.89;100.00;97404.44;4993280;28;20042;-77
2021/01/02 12:56:54;;;;;;;9.93;5.25;;;;;;;4.03;100.00;97404.59;5013333;28;20049;-76
2021/01/02 12:59:33;;;;;;;10.52;4.90;;;;;;;3.94;100.00;97414.31;4977106;28;20046;-77
2021/01/02 13:02:03;;;;;;;10.35;5.20;;;;;;;3.87;100.00;97419.19;5006246;28;20050;-77
2021/01/02 13:04:32;;;;;;;8.90;5.15;;;;;;;3.70;100.00;97424.88;4998421;28;20050;-77
2021/01/02 13:07:01;;;;;;;8.82;4.97;;;;;;;3.67;100.00;97417.41;4960437;28;20038;-77
2021/01/02 13:09:29;;;;;;;8.77;4.95;;;;;;;3.49;100.00;97418.84;4995006;28;20046;-77
2021/01/02 13:11:57;;;;;;;9.07;4.95;;;;;;;3.50;100.00;97411.63;5005414;28;20038;-78
2021/01/02 13:14:26;;;;;;;11.90;6.60;;;;;;;3.15;100.00;97418.69;5006777;28;20041;-77
2021/01/02 13:16:54;;;;;;;11.73;6.35;;;;;;;3.11;100.00;97432.88;4987385;28;20056;-77
2021/01/02 13:19:21;;;;;;;12.80;6.45;;;;;;;3.04;100.00;97421.69;4979729;28;20137;-77
2021/01/02 13:27:36;;;;;;;12.25;6.32;;;;;;;2.83;100.00;97402.22;5002591;28;20057;-78
2021/01/02 13:30:34;;;;;;;10.32;6.05;;;;;;;2.58;100.00;97407.63;4993243;28;20476;-79
2021/01/02 13:33:17;;;;;;;11.18;5.55;;;;;;;2.92;100.00;97405.13;5012629;28;20121;-78
2021/01/02 13:40:46;;;;;;;;;;;;;;;;;;;;;
2021/01/02 13:43:54;;;;;;;9.10;5.38;;;;;;;2.76;100.00;97377.63;4948614;28;20062;-79
2021/01/02 13:47:18;;;;;;;13.32;6.28;;;;;;;2.98;100.00;97409.38;4970070;28;20042;-79
2021/01/02 13:50:50;;;;;;;11.50;6.40;;;;;;;3.00;100.00;97377.81;4998539;28;20137;-79
2021/01/02 13:54:13;;;;;;;13.13;6.30;;;;;;;3.06;100.00;97416.84;4946731;28;20515;-80
2021/01/02 13:57:57;;;;;;;13.85;6.88;;;;;;;2.74;100.00;97381.63;4879480;29;20049;-80
2021/01/02 14:01:35;;;;;;;14.98;7.13;;;;;;;2.59;100.00;97387.81;4926671;28;20129;-79
2021/01/02 14:04:40;;;;;;;13.95;6.65;;;;;;;2.74;100.00;97408.38;4906509;29;20371;-78
2021/01/02 14:07:09;;;;;;;12.60;6.47;;;;;;;2.91;100.00;97417.72;4979470;28;20052;-78
2021/01/02 14:09:36;;;;;;;13.57;6.70;;;;;;;2.90;100.00;97429.47;5027462;28;20041;-77
2021/01/02 14:12:04;;;;;;;16.67;8.60;;;;;;;2.90;100.00;97418.78;5001279;28;20521;-80
2021/01/02 14:14:32;;;;;;;19.60;7.53;;;;;;;2.78;100.00;97418.28;5007095;28;20132;-79
2021/01/02 14:16:59;;;;;;;14.93;7.45;;;;;;;2.81;100.00;97412.38;4996320;28;20053;-79
2021/01/02 14:19:28;;;;;;;15.65;7.07;;;;;;;2.83;100.00;97406.75;5010766;28;20057;-80
2021/01/02 14:21:57;;;;;;;12.68;7.13;;;;;;;2.70;100.00;97412.66;4986267;28;20042;-80
2021/01/02 14:24:24;;;;;;;13.50;7.22;;;;;;;2.53;100.00;97422.84;4994973;28;20037;-77
2021/01/02 14:26:53;;;;;;;13.88;6.57;;;;;;;2.54;100.00;97414.53;5006739;28;20039;-78
2021/01/02 14:29:25;;;;;;;11.25;6.18;;;;;;;2.66;100.00;97407.03;4994690;28;20042;-77
2021/01/02 14:31:52;;;;;;;13.98;6.90;;;;;;;2.64;100.00;97409.19;4993390;28;20045;-79
2021/01/02 14:34:23;;;;;;;13.25;7.53;;;;;;;2.72;100.00;97403.31;4960395;28;20482;-79
2021/01/02 14:37:07;;;;;;;17.30;7.43;;;;;;;2.32;100.00;97417.47;4974821;28;20292;-78
2021/01/02 14:39:33;;;;;;;15.80;7.35;;;;;;;2.37;100.00;97414.84;4989781;28;20116;-78
2021/01/02 14:42:05;;;;;;;19.45;8.13;;;;;;;2.25;100.00;97422.28;4993918;28;20046;-78
2021/01/02 14:44:32;;;;;;;15.25;7.10;;;;;;;2.29;100.00;97419.91;4983143;28;20580;-78
2021/01/02 14:46:58;;;;;;;16.52;7.97;;;;;;;2.39;100.00;97415.38;4993967;28;20056;-79
2021/01/02 14:49:25;;;;;;;15.05;6.85;;;;;;;2.43;100.00;97413.75;5010904;28;20042;-79